createdAt,value
2019-02-27T00:00:01.105Z,10.8
2019-02-27T00:05:01.198Z,11.3
2019-02-27T00:10:01.130Z,10.4
2019-02-27T00:15:06.144Z,10.3
2019-02-27T00:20:09.573Z,10.1
2019-02-27T00:25:04.409Z,10.0
2019-02-27T00:30:10.343Z,9.8
2019-02-27T00:35:01.234Z,9.9
2019-02-27T00:45:01.297Z,9.6
2019-02-27T00:50:07.002Z,9.7
2019-02-27T00:55:05.542Z,9.6
2019-02-27T01:00:01.127Z,10.5
2019-02-27T01:05:01.272Z,10.5
2019-02-27T01:10:01.094Z,11.2
2019-02-27T01:15:01.288Z,11.1
2019-02-27T01:20:01.104Z,11.5
2019-02-27T01:25:01.162Z,11.4
2019-02-27T01:30:01.110Z,10.8
2019-02-27T01:35:01.103Z,10.3
2019-02-27T01:40:01.114Z,10.0
2019-02-27T01:45:01.242Z,9.8
2019-02-27T01:50:01.112Z,9.2
2019-02-27T02:10:00.887Z,9.4
2019-02-27T02:15:00.949Z,10.1
2019-02-27T02:30:01.320Z,8.6
2019-02-27T02:50:01.519Z,9.6
2019-02-27T02:55:01.418Z,9.1
2019-02-27T03:00:02.238Z,9.1
2019-02-27T03:05:01.497Z,9.0
2019-02-27T03:20:00.977Z,10.0
2019-02-27T03:25:05.957Z,9.9
2019-02-27T03:30:05.842Z,10.0
2019-02-27T03:50:01.395Z,7.7
2019-02-27T04:10:06.618Z,9.1
2019-02-27T04:16:01.600Z,9.0
2019-02-27T04:21:01.476Z,8.8
2019-02-27T04:26:06.975Z,8.8
2019-02-27T04:31:01.470Z,8.7
2019-02-27T04:36:01.520Z,7.7
2019-02-27T04:41:01.458Z,7.7
2019-02-27T04:46:01.513Z,7.7
2019-02-27T04:51:01.437Z,7.7
2019-02-27T04:56:01.481Z,7.7
2019-02-27T05:01:01.430Z,7.7
2019-02-27T05:06:02.714Z,7.7
2019-02-27T05:11:01.439Z,7.5
2019-02-27T05:16:01.628Z,7.3
2019-02-27T05:21:01.430Z,7.3
2019-02-27T05:26:01.495Z,7.0
2019-02-27T05:31:01.438Z,7.1
2019-02-27T05:36:01.479Z,6.8
2019-02-27T05:46:04.060Z,6.1
2019-02-27T05:51:01.419Z,5.3
2019-02-27T05:56:01.494Z,5.3
2019-02-27T06:01:06.054Z,6.6
2019-02-27T06:06:01.495Z,6.8
2019-02-27T06:11:02.447Z,5.7
2019-02-27T06:16:09.427Z,5.7
2019-02-27T06:21:01.433Z,5.7
2019-02-27T06:26:01.522Z,5.5
2019-02-27T06:31:03.418Z,4.5
2019-02-27T06:36:01.501Z,4.5
2019-02-27T06:46:01.587Z,5.2
2019-02-27T06:51:02.000Z,5.8
2019-02-27T06:56:04.313Z,5.9
2019-02-27T07:01:01.424Z,5.1
2019-02-27T07:06:01.499Z,5.2
2019-02-27T07:11:11.504Z,5.7
2019-02-27T07:16:01.569Z,5.7
2019-02-27T07:21:01.499Z,6.9
2019-02-27T07:26:01.553Z,7.0
2019-02-27T07:31:06.499Z,7.5
2019-02-27T07:36:04.509Z,7.6
2019-02-27T07:41:01.428Z,10.5
2019-02-27T07:46:01.495Z,10.5
2019-02-27T07:51:01.415Z,11.4
2019-02-27T07:56:01.557Z,11.3
2019-02-27T08:01:01.438Z,11.1
2019-02-27T08:06:03.313Z,11.0
2019-02-27T08:11:01.429Z,12.4
2019-02-27T08:16:01.508Z,12.2
2019-02-27T08:21:06.434Z,15.6
2019-02-27T08:26:05.940Z,15.5
2019-02-27T08:31:01.471Z,16.3
2019-02-27T08:36:01.501Z,16.0
2019-02-27T08:41:01.419Z,16.3
2019-02-27T08:46:03.356Z,16.5
2019-02-27T08:51:09.045Z,17.9
2019-02-27T08:56:01.499Z,17.7
2019-02-27T09:01:01.438Z,19.1
2019-02-27T09:06:01.552Z,19.1
2019-02-27T09:11:07.083Z,20.3
2019-02-27T09:16:01.491Z,19.8
2019-02-27T09:21:01.441Z,19.1
2019-02-27T09:26:03.814Z,18.9
2019-02-27T09:31:04.844Z,19.7
2019-02-27T09:36:01.567Z,19.6
2019-02-27T09:41:01.443Z,20.8
2019-02-27T09:46:01.435Z,20.7
2019-02-27T09:51:01.433Z,21.6
2019-02-27T09:56:01.435Z,22.2
2019-02-27T10:01:03.557Z,22.2
2019-02-27T10:20:03.176Z,23.7
2019-02-27T10:25:01.497Z,24.4
2019-02-27T10:30:01.364Z,24.3
2019-02-27T10:35:01.523Z,24.0
2019-02-27T10:40:01.359Z,24.1
2019-02-27T10:45:01.432Z,24.2
2019-02-27T10:50:03.349Z,23.8
2019-02-27T10:55:01.420Z,23.7
2019-02-27T11:00:01.447Z,23.8
2019-02-27T11:05:01.373Z,24.1
2019-02-27T11:10:01.367Z,23.5
2019-02-27T11:15:01.462Z,23.5
2019-02-27T11:20:01.369Z,23.6
2019-02-27T11:25:01.529Z,23.5
2019-02-27T11:30:03.587Z,23.5
2019-02-27T11:35:01.511Z,23.8
2019-02-27T11:40:01.391Z,24.2
2019-02-27T11:45:01.433Z,24.4
2019-02-27T11:50:01.376Z,24.7
2019-02-27T11:55:01.535Z,25.5
2019-02-27T12:00:01.368Z,26.0
2019-02-27T12:05:01.521Z,26.6
2019-02-27T12:10:01.387Z,26.7
2019-02-27T12:15:01.527Z,27.1
2019-02-27T12:25:01.376Z,25.9
2019-02-27T12:30:04.276Z,25.8
2019-02-27T12:35:03.440Z,26.6
2019-02-27T12:40:01.444Z,27.2
2019-02-27T12:45:01.573Z,27.3
2019-02-27T12:50:01.384Z,27.5
2019-02-27T12:55:02.856Z,27.6
2019-02-27T13:00:01.383Z,27.1
2019-02-27T13:05:01.441Z,27.3
2019-02-27T13:10:01.413Z,27.1
2019-02-27T13:15:01.396Z,26.8
2019-02-27T13:20:03.444Z,26.2
2019-02-27T13:25:01.438Z,26.0
2019-02-27T13:30:09.555Z,25.4
2019-02-27T13:35:01.932Z,24.7
2019-02-27T13:40:01.724Z,24.1
2019-02-27T13:45:01.528Z,24.2
2019-02-27T13:50:01.398Z,24.1
2019-02-27T13:55:01.578Z,24.0
2019-02-27T14:00:01.434Z,23.9
2019-02-27T14:10:01.536Z,23.8
2019-02-27T14:15:01.522Z,23.8
2019-02-27T14:20:01.418Z,23.6
2019-02-27T14:25:06.444Z,23.6
2019-02-27T14:30:06.412Z,23.6
2019-02-27T14:50:01.270Z,25.7
2019-02-27T14:55:04.601Z,26.1
2019-02-27T15:00:06.597Z,26.0
2019-02-27T15:05:09.320Z,25.4
2019-02-27T15:10:01.202Z,25.6
2019-02-27T15:15:01.199Z,25.8
2019-02-27T15:20:06.044Z,25.9
2019-02-27T15:25:01.330Z,26.3
2019-02-27T15:30:01.221Z,26.8
2019-02-27T15:35:01.280Z,26.7
2019-02-27T15:40:02.148Z,26.5
2019-02-27T15:45:01.208Z,27.0
2019-02-27T15:50:03.011Z,26.5
2019-02-27T15:55:01.334Z,26.3
2019-02-27T16:00:01.298Z,25.9
2019-02-27T16:05:01.213Z,26.2
2019-02-27T16:15:01.321Z,26.6
2019-02-27T16:20:01.224Z,26.2
2019-02-27T16:25:01.348Z,26.2
2019-02-27T16:30:01.268Z,25.9
2019-02-27T16:35:08.255Z,25.3
2019-02-27T16:40:01.216Z,25.0
2019-02-27T16:45:01.282Z,25.6
2019-02-27T16:50:01.283Z,25.5
2019-02-27T16:55:02.768Z,25.2
2019-02-27T17:00:02.192Z,25.0
2019-02-27T17:05:01.371Z,24.5
2019-02-27T17:10:01.458Z,24.1
2019-02-27T17:15:01.299Z,23.1
2019-02-27T17:20:01.248Z,23.3
2019-02-27T17:25:01.240Z,23.1
2019-02-27T17:30:01.527Z,23.3
2019-02-27T17:35:02.389Z,22.6
2019-02-27T17:40:03.800Z,23.4
2019-02-27T17:45:03.603Z,24.6
2019-02-27T17:50:01.409Z,25.4
2019-02-27T17:55:07.694Z,25.3
2019-02-27T18:00:01.263Z,25.9
2019-02-27T18:05:02.055Z,24.9
2019-02-27T18:10:02.607Z,24.8
2019-02-27T18:15:01.325Z,24.0
2019-02-27T18:20:01.254Z,24.0
2019-02-27T18:25:01.321Z,22.9
2019-02-27T18:30:01.290Z,23.2
2019-02-27T18:35:01.563Z,23.2
2019-02-27T18:45:01.385Z,23.5
2019-02-27T18:50:06.272Z,23.8
2019-02-27T18:55:01.499Z,23.4
2019-02-27T19:00:02.734Z,23.1
2019-02-27T19:05:01.409Z,22.6
2019-02-27T19:10:08.083Z,22.5
2019-02-27T19:15:01.345Z,21.7
2019-02-27T19:20:01.412Z,21.2
2019-02-27T19:25:01.339Z,20.3
2019-02-27T19:30:07.577Z,20.3
2019-02-27T19:35:01.472Z,20.2
2019-02-27T19:40:01.303Z,20.3
2019-02-27T19:45:10.396Z,20.7
2019-02-27T19:50:01.278Z,21.1
2019-02-27T19:55:01.338Z,20.6
2019-02-27T20:00:01.349Z,20.3
2019-02-27T20:05:01.411Z,20.2
2019-02-27T20:10:02.362Z,19.5
2019-02-27T20:15:01.408Z,19.4
2019-02-27T20:20:05.533Z,19.2
2019-02-27T20:25:01.355Z,18.5
2019-02-27T20:30:01.288Z,18.3
2019-02-27T20:35:01.428Z,18.5
2019-02-27T20:40:01.292Z,18.5
2019-02-27T20:45:01.423Z,17.3
2019-02-27T20:50:01.300Z,17.7
2019-02-27T20:55:01.359Z,17.5
2019-02-27T21:00:03.115Z,17.1
2019-02-27T21:05:01.447Z,17.5
2019-02-27T21:10:01.320Z,17.6
2019-02-27T21:15:01.387Z,15.9
2019-02-27T21:20:01.362Z,16.0
2019-02-27T21:25:01.351Z,15.5
2019-02-27T21:30:01.307Z,15.5
2019-02-27T21:35:01.440Z,16.9
2019-02-27T21:40:03.634Z,17.3
2019-02-27T21:45:04.848Z,14.6
2019-02-27T21:50:07.447Z,14.6
2019-02-27T21:55:01.397Z,15.3
2019-02-27T22:00:01.424Z,15.3
2019-02-27T22:05:01.468Z,12.9
2019-02-27T22:10:01.322Z,13.1
2019-02-27T22:15:06.382Z,12.6
2019-02-27T22:20:01.509Z,11.5
2019-02-27T22:25:06.416Z,11.5
2019-02-27T22:30:01.521Z,11.8
2019-02-27T22:35:04.306Z,10.6
2019-02-27T22:40:07.802Z,10.8
2019-02-27T22:45:05.257Z,9.3
2019-02-27T22:50:07.216Z,9.3
2019-02-27T22:55:01.417Z,7.0
2019-02-27T23:00:01.681Z,7.4
2019-02-27T23:05:05.284Z,7.4
2019-02-27T23:10:01.353Z,8.3
2019-02-27T23:15:01.432Z,8.5
2019-02-27T23:20:01.363Z,8.6
2019-02-27T23:30:01.476Z,7.5
2019-02-27T23:35:01.495Z,4.0
2019-02-27T23:40:01.363Z,2.8
2019-02-27T23:45:01.494Z,2.9
2019-02-27T23:50:01.377Z,1.7
2019-02-27T23:55:01.498Z,1.7
